world map with KCDD marked

KCDD - Seaplane Base

This information may not be accurate or current and is not valid for navigation or flight planning. No warranty of fitness for any purpose is made or implied.

flag of Minnesotaflag of United States

Donate via PayPal

Additional information is available on the NEW Great Circle Mapper

Location
City:  Crane Lake, Minnesota, United States
Name:Scotts SPB
ICAO:KCDD
FAA:CDD

Details
Type:Seaplane Base
Use:Public/Civil
Latitude:48°16'00"N (48.266572)
Longitude:92°29'01"W (-92.483490)
Datum:WGS 1984
Elevation:1119 ft (341 m)

Time
Timezone:UTC+28:08 (DST+31:08)
Local Time:

Weather
METAR:KCDD  231511Z AUTO 00000KT 3/4SM BR OVC003 00/00 A2944 RMK AO2

Related Locations
Nearby:
Farthest:YWKS: 10896 mi / 17536 km
Wilkins Runway (Casey), Upper Peterson Glacier, AQ

Find:

   beyond  
but within

Other Information
Maps:
Links:
Sources:

  

Sectional Chart

Flight Planning
at skyvector.com

 


Great Circle Mapper   Great Circle Mapper
Great Circle Mapper FAQ   Great Circle Mapper FAQ
  Karl's Home Page
KLSē   KLSē Home
   GC on Facebook
Airlines of the World   Airlines of the World
Donate via PayPal


Copyright © 2004-2014, Karl L. Swartz. All rights reserved.
All trademarks mentioned herein belong to their respective owners.

Please see credits for attribution and copyright information.

Karl Swartz <karl@kls2.com>
  Powered by FreeBSD
Valid HTML 4.01!
Labeled with ICRA
hCard Microformat
Geo Microformat